West Glenwood, Colorado
Current Conditions -  °F | °C
As of 8:16 PM on Friday 21 Nov 2014 (Local Time) from K5SM Reporting Station
Clear Clear  
Wind Chill: 27°   Ceiling: Unl
Heat Index: 27°   Visibility: 10mi
Dew Point: 18°   Wind: 3mph
Humidity: 69%   Direction: 220°SW
Pressure: 30.15"   Gusts: NA
Location:  39.6119°N, 107.29°W
Report Text: K5SM 220316Z AUTO 22003KT 10SM CLR M03/M08 A3015 RMK AO2
Loading
Personal Weather Stations






























Interactive Weather Map New forecast layout! Learn more

10-Day Weather Forecast

Advertisements
Track Severe Weather on mobile